2014 West Sacramento CX Grand Prix
Race Results
9/6/2014 - NORCALCX
Elite Men Top
Pos Bib Name Age City Sponsor Laps Time Average License
1 52  Anthony Clark 27  Feeding Hills, MA  JAM/NCC 11 0:55:48.8 0:05:04.4 281380
2 51  Cody Kaiser 22  El Dorado Hills, CA  LangeTwins/Specialized 11 0:56:50.7 0:05:10.1 202564
3 63  Walton Brush 24  Berkeley, CA  MASH SF 11 0:56:55.8 0:05:10.5 390421
4 53  Tobin Ortenblad 20  Santa Cruz, CA  California Giant/Specialized 11 0:57:47.7 0:05:15.2 303583
5 75  Gavin Haley 18     11 0:59:08.8 0:05:22.6 259719
6 66  Zach Heath 28  Sacramento, CA  HiFi CX 11 0:59:10.5 0:05:22.8 302891
7 62  Keith Hillier 30  Millbrae, CA  Team Rambuski Law 11 0:59:33.7 0:05:24.9 276108
8 70  Max Jenkins 28  Citrus Heights, CA  Marc Pro - Strava 11 0:59:38.7 0:05:25.3 195652
9 76  Max Jadelson 27     11 1:00:40.7 0:05:31.0 188837
10 58  Nick Schaffner 32  Reno, NV  Marc Pro - Strava 11 1:01:16.8 0:05:34.0 187296
11 57  Chris Mcgovern 41  Nevada City, CA  Real Wheels Bike Shop Nevada City CA 11 1:01:18.5 0:05:34.4 23487
12 69  Erik Vangsnes 29  Berkeley, CA  Team Mikes Bikes p/b Equator Coffees 11 1:01:31.4 0:05:35.6 387258
13 60  Samuel Guzman 32  Sacramento, CA  Victory Velo Racing 11 1:01:42.1 0:05:36.6 367810
14 61  Aj Kennedy 41  Martinez, CA  VuMedi Elite Cycling Team 11 1:01:43.6 0:05:36.7 257276
15 78  Alfred Canthen 40     10 0:56:40.7 0:05:40.1 285555
16 59  Curtis Smith 34  S. Lake Tahoe, CA  Team BP/Sierra Nevada/Reliable 10 0:57:11.5 0:05:43.2 357251
17 56  Murray Swanson 48  Wood Side, CA  Pen velo racing 10 0:57:21.6 0:05:44.2 2016144
18 68  Clint Williams 27  Sacramento, CA  River City Velo 10 0:57:37.1 0:05:45.7 331630
19 81  Antonio Miranda 33  Sacramento, CA  Kinetic cycles 10 0:58:01.3 0:05:48.1 404027
20 72  Aj Snovel 22  Sacramento, CA  Folsom Bike/VW/Raleys 10 0:58:20.5 0:05:50.0 272559
21 71  Kailin Waterman 35  Oakland, CA  Voler/HRS/Rocklobster 10 0:58:34.3 0:05:51.0 391421
22 331  Ulises Salas 39  Sonora, CA  queen city cycling 10 0:59:25.7 0:05:56.6 223209
23 64  Brad Handel 31  San Francisco, CA  Fresh Air / Hunter Cycles 10 0:59:46.7 0:05:58.7 429828
24 65  Scott Hooper 31  Folsom, CA  Team BP/Sierra Nevada/Reliable 10 1:00:19.8 0:06:32.9 142947
25 82  Kevin Tufts 35  Cameron Park, CA  Folsom Bike/VW/Raleys 10 1:00:31.8 0:06:03.2 243434
26 80  Shepherd Myers 33  Kaneone, HI  Quick Release 10 1:02:38.7 0:06:15.9 -
27 74  Kyle Ng 25  San Francisco, CA  Fresh Air / Hunter 9 0:58:40.6 0:06:31.2 448809
28 77  Chris Rippey 33  East Palo Alto, CA  Team roaring mouse 7 0:39:18.7 0:05:37.0 358809
29 79  John-Reed Thompson 43  Sacramento, CA  River City Velo p/b TBBX BITCH! 6 0:34:09.8 0:05:41.6 -
30 73  Gannon Myall 49  Lafayette, CA  Cal Giant Berry Farms/Specialized 4 0:21:36.7 0:05:24.2 25592
31 83  Brian Ray 30  Sacramento, CA   3 0:16:29.5 0:05:29.8 1 DAY
32 55  Brian Finnerty 44  Santa Rosa, CA  Cal Giant Specialized 2 0:07:45.7 0:03:52.9 11648
dns 54  Chris Cowart 43  Redwood City, CA  Pen Velo Racing 0 - - 361265
dns 67  Eric Nelson 38  San Clemente, CA  Mudfoot 0 - - 232855
Elite Women Top
Pos Bib Name Age City Sponsor Laps Time Average License
1 3  Rachel Lloyd 39  Fairfax, CA  California Giant Berry/Specialized 8 0:43:31.6 0:05:26.5 0107283
2 4  Emily Kachorek 35  Sacramento, CA  Squid Bikes 8 0:44:14.1 0:05:31.8 0167636
3 14  Teal Stetson-Lee 28  Reno, NV  Luna Pro Team 8 0:44:39.1 0:05:34.9 252205
4 2  Lisa Jacobs 33  Melbourne, VI  Rapha-Focus 8 0:44:50.0 0:05:36.3 AUS1981091
5 6  Carolina Gomz-Villafane 22  Los Gatos, CA  VanderkittenCX 8 0:45:16.0 0:05:39.5 391083
6 9  Karen Brems 52  Redwood City, CA  Team Rambuski Law 8 0:45:37.8 0:05:42.2 20017
7 11  Caroline Dezendorf 25  San Rafael, CA  Team Mikes Bikes p/b Equator Coffee and Teas 8 0:46:06.7 0:05:45.8 342500
8 7  Ellen Sherrill 35  South Lake Taho, CA  Voler/HRS/Rock Lobster 8 0:46:49.0 0:05:51.1 299535
9 10  Tanya Grossman 41  Castro Valley, CA  Los gatos 8 0:47:38.7 0:05:57.3 356222
10 20  Janie Dalton 44  Kensington, CA  Missing Link 8 0:47:57.1 0:05:59.6 79232
11 12  Kristin Drumm 45  Novato, CA  CX Nation 8 0:48:21.2 0:06:02.7 661
12 1  Elle Anderson 26  San Francisco, CA  KDL CYCLING 8 0:48:29.2 0:06:03.6 275441
13 8  Hollie Mcgovern 41  Nevada City, CA  Real Wheel Bike Shop Nevada City CA 8 0:48:35.2 0:06:04.4 166824
14 5  Rebecca Gross 34  Golden, CO  VanderkittenCX 8 0:48:40.2 0:06:05.0 0176014
15 18  Trina Baumsteiger 49  San Luis Obispo, CA  Team Rambuski Law 8 0:49:16.2 0:06:09.5 2947
16 21  Erica Grief 23    Reno Wheelmen 8 0:49:46.7 0:06:13.3 367331
17 13  Stace Cooper 44  Lincoln, CA  GHETOCX 7 0:45:11.9 0:06:27.4 7731
18 15  Katie Styer 29  San Francisco, CA  TEAM JORTZ 7 0:46:14.9 0:06:36.4 309920
19 19  Audrey Biehle 31  Plymouth, CA   7 0:47:45.1 0:06:49.3 391877
20 16  Chelsea Weidinger 30  San Francisco, CA  MASH SF 7 0:50:15.2 0:07:10.7 421168
dns 17  Kelly Miller 37  West Sacramento, CA  Rio Strada Racing 0 - - 378684
Junior Men 15-18 Top
Pos Bib Name Age City Sponsor Laps Time Average License
1 370  Cole Davis 15  Folsom, CA  Limitless Cycling Racing Team 6 0:32:18.0 0:05:23.0 397835
2 223  Miles Daly 16  Tiburon, CA  CX Nation 6 0:33:08.0 0:05:31.3 376121
3 339  Zachary Gottesman 15  Greenbrae, CA  MELLOW MOTORS CYCLING TEAM 6 0:33:09.0 0:05:31.5 380907
4 197  Will Kanz 17  Davis, CA  Davis Bike Club Junior Race Team 6 0:34:18.9 0:05:43.1 286429
5 271  Kenji Yoshimoto 16  Diamond Bar, CA  Team Velocity 6 0:34:24.3 0:05:44.0 302439
Junior Men 9-14 Top
Pos Bib Name Age City Sponsor Laps Time Average License
1 374  Paul Haley 11    Red zone 5 0:32:00.6 0:06:24.1 414569
2 363  Robert Ghirardelli 13  Sacramento, CA   5 0:32:35.8 0:06:31.2 1 DAY
3 373  Cole Fleming 14    Academy Racing 5 0:33:18.0 0:06:39.6 1 DAY
4 102  Jack Hargrove 14  West Sacramento, CA  TBBCX 5 0:35:43.9 0:07:08.8 379870
5 372  Connor Nearn 13    Academy Racing 5 0:37:10.6 0:07:26.1 1 DAY
6 353  Adrian Gaffney 10  San Jose, CA  LuxVue/Sunpower 4 0:30:40.0 0:07:40.0 393487
7 128  Dan English 9  San Ramon, CA  SuperPro Racing 4 0:32:23.8 0:08:05.9 1 DAY
Junior Women 9-14 Top
Pos Bib Name Age City Sponsor Laps Time Average License
1 137  Kennedy Hill 14  Woodland, CA  Vanderkitten 4 0:27:06.3 0:06:46.6 352008
2 252  Madelyn Swanson 14  Woodside, CA  Pen Velo Racing 4 0:35:02.8 0:08:45.7 386261
Master Men 35+ Top
Pos Bib Name Age City Sponsor Laps Time Average License
1 401  Don Myrah 46  San Jose, CA  Ibis/Buy-Cell.com 8 0:42:59.0 0:05:22.4 25636
2 114  Sage Aldebaran 39  Novato, CA  cx nation 8 0:43:36.0 0:05:27.0 1316
3 311  John Mundelius 48  Concord, CA  Cal Giant / Specialized 8 0:43:39.8 0:05:27.5 131006
4 153  Jason Benford 40  San Francisco, CA  Spokesman Bicycles 8 0:44:18.5 0:05:32.3 198025
5 105  Brian Staby 43  Santa Rosa, CA  CX Nation 8 0:44:31.0 0:05:33.9 215179
6 317  Jason Nearn 43  Fresno, CA  Academy Racing 8 0:44:37.0 0:05:34.6 367019
7 395  Anastasio Flores, Jr 43     8 0:44:44.7 0:05:35.6 11877
8 245  Sam Lueck 42  Fairfax, CA  DFL 8 0:44:47.8 0:05:36.0 2110707
9 127  Jude Mayne 42  Reno, NV  Ibis/Buy-Cell.com 8 0:44:53.7 0:05:36.7 261818
10 183  Justin Madison 45  Vacaville, CA  Velo Fratello 8 0:44:58.3 0:05:37.3 304658
11 120  Justin Hintz 39  Sacramento, CA  River City Velo 8 0:45:18.9 0:05:39.9 368842
12 176  Troy Malmin 36  Santa Cruz, CA  Caletti Cycles 8 0:45:55.0 0:05:44.4 395565
13 388  Craig Chaney 43  Turlock, CA  Bell Real Estate Cycling Team 8 0:46:01.0 0:05:45.1 87111
14 185  Jeremiah Kille 37  Santa Cruz, CA  Team Caletti 8 0:46:05.7 0:05:45.7 304508
15 300  Alex Nourot 41  Davis, CA   8 0:47:05.7 0:05:53.2 420132
16 399  Dean Klotz 52  Cameron Park, CA  LeadOut Racing 8 0:47:38.0 0:05:57.2 139360
17 180  Chris Udarbe 43  Folsom, CA  Folsom Bike / Giant 8 0:47:42.7 0:05:57.8 1 DAY
18 54  Chris Cowart 43  Redwood City, CA  Pen Velo Racing 8 0:47:53.0 0:05:59.1 361265
19 132  Rich Hufford 44  Granite Bay, CA  Victory Velo Racing 8 0:48:34.9 0:06:04.4 365212
20 231  Ken Ballard 39  Sacramento, CA   8 0:48:59.9 0:06:07.5 1 DAY
21 393  Chris Salcone 40  Folsom, CA  Team Donate Life 8 0:50:10.0 0:06:16.2 -
22 175  Matthew Lewsadder 37  Monte Sereno, CA  Los Gatos Bicycle Racing Club 8 0:50:21.8 0:06:17.7 400759
23 398  Zol Whitman 44  placerville, ca  Folsom Bike / Giant 7 0:43:53.7 0:06:16.2 -
24 260  Jamaica Lambie 39  Woodland, CA  Team EcxiteBike 7 0:44:03.9 0:06:17.7 301435
25 166  David Christy 40  Clayton, CA  CA Technologies 7 0:44:13.8 0:06:19.1 356847
26 302  Chris Jensen 43  Elk Grove, CA  Team Revolutions 7 0:44:50.3 0:06:24.3 1 DAY
27 397  Raul de Anda 51  West Sacramento, CA   7 0:45:37.0 0:06:31.0 -
28 289  Jason Snovel 44  Sacramento, CA  Folsom Bike/VW/Raleys 7 0:47:44.4 0:06:49.2 268577
29 394  Brian Gaultney 42  Sacramento, CA   6 0:41:24.4 0:06:54.1 -
30 212  Vee Bhopla 40  Folsom, CA  REVS 4 0:22:28.4 0:05:37.1 258303
31 286  Matt Newman 44  San Francisco, CA   4 0:23:11.9 0:05:48.0 367774
32 211  Robert Kimzey 44  Roseville, CA  tbb/ wukar fitness 4 0:45:30.6 0:11:22.6 1 DAY
33 390  Henry Krame 59     2 0:08:21.3 0:04:10.7 52268
34 178  Ron Shevock 39  Folsom, CA  Folsom Bike / VW / Raleys 2 0:09:32.8 0:04:46.4 294396
dns 56  Murray Swanson 48  Wood Side, CA  Pen velo racing 0 - - 2016144
dns 177  Andrew Vontz 39  San Francisco, CA  RAW STEEL THUGS 0 - - 1 DAY
Master Men 45+ Top
Pos Bib Name Age City Sponsor Laps Time Average License
1 198  Tao Bernaredi 48  Dublin, CA  Fortnergardens.com 8 0:44:25.9 0:05:33.2 3487
2 226  Robert Meighan 53  San Jose, CA  CalGiant Specialized 8 0:44:43.8 0:05:35.5 40227
3 347  Chris Gaffney 50  San Jose, CA  LuxVue/Sunpower 8 0:44:46.7 0:05:35.8 286526
4 323  Joseph Staron 47  Sacramento, CA  Folsom bike 8 0:45:25.5 0:05:40.7 132859
5 296  Joe Fabris 56  Los Gatos, CA  Plus 3 8 0:45:31.9 0:05:41.5 189959
6 109  John Kammeyer 49  San Mateo, CA  PenVelo 8 0:45:36.8 0:05:42.1 55661
7 290  Robert Goss 53  Folsom, CA  Team Bicycles Plus/Sierra Nevada/ Reliable 8 0:45:39.0 0:05:42.4 289041
8 385  Eric Bustos 45  Alameda, CA  Cal Giant/Specialized 8 0:45:41.0 0:05:42.6 40678
9 298  Matthew Shelton 50  Mill Valley, CA   8 0:46:03.0 0:05:45.4 42391
10 389  Norm Kreiss 57  Orinda, CA  California Giant Berry Farms 8 0:46:20.0 0:05:47.5 127410
11 134  Jason Hayes 45  Sacramento, CA   8 0:46:24.5 0:05:48.1 1 DAY
12 221  Rob Stark 55  Elk Grove, CA  Kinetic Cycles 8 0:46:32.5 0:05:49.1 287188
13 310  Jerome Heiberger 53  Grass Valley, CA  SHO-AIR/SERT 8 0:46:39.2 0:05:49.9 15679
14 124  Miles Keep 47  Menlo Park, CA  Summit Bicycles 8 0:46:47.8 0:05:51.0 333112
15 104  William Youngman 45  Rocklin, CA  REVS 8 0:46:49.9 0:05:51.2 203737
16 215  Jeff Anderson 52  San Ramon, CA   8 0:47:04.8 0:05:53.1 68739
17 169  Will Waggoner 45  Sacramento, CA  Davis Bike Club Race Team 8 0:47:05.0 0:05:53.1 196269
18 111  Rene Larro 45  San Mateo, CA  PenVelo Racing 8 0:47:06.3 0:05:53.3 387473
19 343  Jeff Townsend 59  Los Gatos, CA  Plus 3 8 0:47:08.2 0:05:53.5 262232
20 249  David Snyder 54  Auburn, CA  Pedersen 8 0:47:09.3 0:05:53.7 114948
21 204  Mitch Rohrer 48  Sacramento, CA  Team City 8 0:47:15.4 0:05:54.4 30439
22 208  Ron Rouse 46  Sacramento, CA  Rio Strada Racing 8 0:47:19.0 0:05:54.9 166249
23 287  Ron Fallon 46  Folsom, CA  Victory velo racing 8 0:47:25.9 0:05:55.7 333716
24 202  Edwin Rambuski 56  San Luis Obispo, CA  Teamrambuskilaw.com 8 0:47:30.8 0:05:56.4 0029071
25 299  Tim Cannard 45  Los Gatos, CA  Buy-Cell.com/Ibis 8 0:47:32.7 0:05:56.6 6002
26 145  Erik Week 49  Vacaville, CA  Velo Fratello/Bay Equity 8 0:47:39.0 0:05:57.4 166444
27 172  Mark Fiori 46  Folsom, CA  Folsom Bike/VW/Raleys 8 0:47:44.7 0:05:58.1 112253
28 292  Paul Falvey 57  Grass Valley, CA  Sho/Air Sert 8 0:48:20.6 0:06:02.6 11212
29 225  John Elgart 68  Sacramento, CA  LuxVue/SunPower Racing 8 0:48:32.9 0:06:04.1 45071
30 160  David Tripier 49  Los Gatos, CA  Summit Bikes CX Team 8 0:48:38.5 0:06:04.8 144645
31 189  Mark Mastoras 51  San Bruno, CA  Dolore Grotta/Big Swingin 8 0:48:55.0 0:06:06.9 117797
32 306  Rick Graves 48  San Rafael, CA  CA Technologies 7 0:42:29.5 0:06:04.2 100365
33 214  Blair Peterson 53  Mill Valley, CA  Bear Trust Racing 7 0:42:34.4 0:06:04.9 118422
34 264  Chris Mccrary 46  Danville, CA  Kovarus/Wells Fargo 7 0:42:54.0 0:06:07.7 289122
35 191  Evan Adams 48  San Francisco, CA  DFL 7 0:42:56.0 0:06:08.0 192630
36 324  David Strother 47  San Francisco, CA   7 0:43:08.3 0:06:09.8 1 DAY
37 159  Gregory Spanier 46  Alamo, CA  CA Technologies Racing 7 0:43:10.6 0:06:10.1 332082
38 322  Todd Harris 48  Folsom, CA  Clean Coat Painting/Hurricane Racing 7 0:43:28.6 0:06:12.7 1 DAY
39 293  John Seivert 54  Grass Valley, CA  SHO-Air / SERT 7 0:43:50.0 0:06:15.7 212792
40 203  Steve Rex 53  Sacramento, CA  Rex Cycles 7 0:44:12.8 0:06:19.0 1 DAY
41 126  Jim English 54  San Ramon, CA  SuperPro Racing 7 0:44:19.5 0:06:19.9 1 DAY
42 258  Frank Shoemaker 50  Folsom, CA  Leadoutracing.com / bikenerd 7 0:44:25.0 0:06:20.7 32519
43 384  Karl Semoneit 51  Folsom, CA  Amicas / Absolute Bike 7 0:44:47.6 0:06:23.9 164382
44 140  Stuart Bratton 48  Folsom, CA  LeadOut Racing 7 0:45:28.0 0:06:29.7 286850
45 143  Matt Gregory 50  Riverbank, CA   7 0:45:57.0 0:06:33.9 1 DAY
46 250  Chris Cioni 53  Sacramento, CA  SGW 7 0:46:47.3 0:06:41.0 1 DAY
47 201  Spence Gerber 56  Folsom, CA  Team Dee Larsen 7 0:48:17.0 0:06:53.8 221812
48 192  David Tricamo 50  San Francisco, CA  dfL 3 0:14:57.3 0:04:59.1 35925
49 396  Brad Thomas 61  El Macero, CA  Team Mason Thomas (TMT) 3 0:19:09.6 0:06:23.2 300596
dns 121  Mike Cochran 53  Sacramento, CA  East Sac Bikes 0 - - 297795
dns 199  Sean Lollar 45  Sutter Creek, CA  RaceRim.com 0 - - 21485
dns 213  Chris Becker 45  Orinda, CA  CA Technologies 0 - - 287692
dns 219  Daniel Mcnally 46  Sf, CA  dfL 0 - - 23850
Men B Top
Pos Bib Name Age City Sponsor Laps Time Average License
1 370  Cole Davis 15  Folsom, CA  Limitless Cycling Racing Team 8 0:43:51.6 0:05:28.9 397835
2 168  Daniel Hoeppner 25  Castro Valley, CA  6Fifteen Racing 8 0:43:55.0 0:05:29.4 264773
3 206  Antonio Miranda 33  Sacramento, CA  Kinetic cycles 8 0:44:17.0 0:05:32.1 404027
4 194  Jason Martel-Dye 28  Sacramento, CA  Chico Elite p/b Sierra Nevada 8 0:45:45.0 0:05:43.1 310948
5 263  Brandon Chan 22  Daly City, CA  SyCip Racing 8 0:46:05.6 0:05:45.7 286970
6 242  Eric Stocker 26  San Francisco, CA   8 0:46:23.7 0:05:48.0 1 DAY
7 147  Robert Terra 17  Lodi, CA  TBBCX/GHETO 8 0:46:34.3 0:05:49.3 269793
8 223  Miles Daly 16  Tiburon, CA  CX Nation 8 0:46:35.8 0:05:49.5 376121
9 155  Matthew Hoffman 35  Sacramento, CA  LangeTwins Active Team 8 0:46:59.3 0:05:52.4 1 DAY
10 362  Phillip Smith 24  Sacramento, CA  TBBCX/GHETO 8 0:47:03.5 0:05:52.9 -
11 123  Christopher Namba 25  Sacramento, CA  TBBCX 8 0:47:05.9 0:05:53.2 381934
12 309  Sean Chon 33  Berkeley, CA  Vive La Tarte CX 8 0:47:16.7 0:05:54.6 419039
13 146  Minh Pham 41  Dublin, CA  Cushman & Wakefield 8 0:47:26.8 0:05:55.8 325046
14 184  Jeff Bilodeau 38  Brentwood, CA  Cushman & Wakefield Racing 8 0:47:34.5 0:05:56.8 305630
15 115  James Pavlichek 43  Davis, CA  Davis Bike Club Race Team 8 0:47:46.8 0:05:58.4 63239
16 228  Adam Koch 34  Folsom, CA  Kinetic Cycles 8 0:47:50.0 0:05:58.7 1 DAY
17 297  Riley Marmesh 29  San Francisco, CA   8 0:47:57.8 0:05:59.7 -
18 350  Justin Kennedy 30  Pleasant Hill, CA   8 0:48:17.0 0:06:02.1 1 DAY
19 193  Lee Murai 38  Sacramento, CA   8 0:48:18.8 0:06:02.3 1 DAY
20 108  Nicholas Terzakis 23  Sacramento, CA  TBBCX/GHETO 8 0:48:22.9 0:06:02.9 343836
21 328  Geoffrey Colburn 28  San Francisco, CA  Chica Sexy 8 0:48:31.8 0:06:04.0 354508
22 151  Jeff Wayland 25  El Cerrito, CA  Metromint Cycling 8 0:48:34.0 0:06:04.2 332298
23 346  Emile Goguely 23  Merced, CA  University of California Merced 8 0:48:55.5 0:06:06.9 394972
24 314  Darin Morgan 28  Sacramento, CA  Michael David winery 8 0:49:05.2 0:06:08.2 394404
25 275  Kell Mckenzie 32  Oakland, CA  Broakland / WTTVC 8 0:49:22.0 0:06:10.2 413260
26 148  Dan Winterberg 38  San Francisco, CA  Vive La Tarte-Huckleberry Bikes 8 0:49:25.5 0:06:10.7 302804
27 234  Chase Mason 29  Sacramento, CA  Mike Bikes 8 0:49:47.0 0:06:13.4 419049
28 150  Kyle Blaikie 33  Sacramento, CA  Team Bike Dog 8 0:49:59.5 0:06:14.9 1 DAY
29 158  Nicholas Caster 32  Roseville, CA  Rio Strada Racing 8 0:50:07.0 0:06:15.9 394639
30 229  Blake Heinlein 38  Sacramento, CA  Team Mad Cat 8 0:50:07.5 0:06:15.9 1 DAY
31 342  Paul Larkin 32  Wellington, CA  Roadworks New Zealand 8 0:50:24.0 0:06:18.0 1 DAY
32 239  Mitch Reichardt 36  Sacramento, CA  GHETO 8 0:50:34.9 0:06:19.4 1 DAY
33 236  Chris Ng 24  San Francisco, CA   8 0:50:37.5 0:06:19.7 304753
34 119  Van Geslani 31  Loma Linda, CA  Dons Bikes 7 0:42:30.0 0:06:04.3 232565
35 266  Mason French 24  Davis, CA   7 0:43:56.0 0:06:16.6 1 DAY
36 341  Adrian Silva 29  Oakland, CA  Team Vive La Tarte 7 0:44:13.7 0:06:19.1 227614
37 307  Josue Acosta 28  East Palo Alto, CA   7 0:44:25.2 0:06:20.7 366197
38 321  Kenneth Ho 35  San Francisco, CA  Chica Sexy 7 0:45:12.8 0:06:27.6 1 DAY
39 246  Morgan Allen 32  Oakland, CA  BRKLND 7 0:45:21.0 0:06:28.7 318118
40 196  Maxwell Kiesner 30  Sacramento, CA  Team Mad Cat 7 0:45:36.4 0:06:30.9 1 DAY
41 139  Pete Atwood 42  Sacramento, CA  Team Bike Dog 7 0:45:45.7 0:06:32.2 1 DAY
42 161  Marcus Catano 42  Mt View, CA   7 0:47:26.8 0:06:46.7 443081
43 230  Mark Farias 29  Arcata, CA  Team Heizer Cycling 7 0:47:60.0 0:06:51.4 370049
44 107  Stephen Mason 48  Folsom, CA  SJBC 7 0:49:20.8 0:07:03.0 257941
45 181  Will Beirne 32  Folsom, CA  River City Velo 5 0:36:09.8 0:07:14.0 439570
46 387  Kalen Bergado 22     5 0:36:37.7 0:07:19.5 -
47 197  Will Kanz 17  Davis, CA  Davis Bike Club Junior Race Team 3 0:15:29.6 0:05:09.9 286429
48 268  Bobby Escay 42  Carmichael, CA  Sacramento Golden Wheelmen 1 0:02:32.8 - 271476
49 256  Scott Kingston 32  Sacramento, CA  Folsom Bike/VW/Raleys 1 0:03:09.8 - 364783
dns 240  Christian Lam 25  San Francisco, CA   0 - - 370448
dns 320  Doug Vrieling 51  Modesto, CA  Fun Sport Bikes Cycling Team 0 - - 185026
Men C Top
Pos Bib Name Age City Sponsor Laps Time Average License
1 119  Van Geslani 31  Loma Linda, CA  Dons Bikes 6 0:33:19.8 0:05:33.3 232565
2 123  Christopher Namba 25  Sacramento, CA  TBBCX 6 0:33:30.0 0:05:35.0 381934
3 108  Nicholas Terzakis 23  Sacramento, CA  TBBCX/GHETO 6 0:33:33.4 0:05:35.6 343836
4 164  Stuart Watson 27  San Rafael, CA  Cushman & Wakefield Racing 6 0:33:49.9 0:05:38.3 391493
5 262  Matthew Adler 33  San Francisco, CA   6 0:35:07.4 0:05:51.2 1 DAY
6 346  Emile Goguely 23  Merced, CA  University of California Merced 6 0:35:42.7 0:05:57.1 394972
7 352  Pete Young 29  Lake Tahoe, CA   6 0:36:30.7 0:06:05.1 1 DAY
8 216  Nathan Kostiv 31  Folsom, CA  Sierra Nevada/Bicycles Plus/Reliable 6 0:36:37.1 0:06:06.2 390742
9 230  Mark Farias 29  Arcata, CA  Team Heizer Cycling 6 0:36:58.0 0:06:09.7 370049
10 133  Samuel Hill 15  Woodland, CA  Kinetic Cycles Race Team 6 0:37:40.2 0:06:16.7 318306
11 129  Jason Sandvick 29  Carmichael, CA   6 0:37:47.1 0:06:17.9 1 DAY
12 273  Brent Chipponeri 34  Hilmar, CA  Bell Real Estate Cycling Team 6 0:38:08.4 0:06:21.4 366230
13 248  Brad Johnson 37  Sacramento, CA   6 0:38:26.9 0:06:24.5 1 DAY
14 131  James Schek 34  San Jose, CA  Pen Velo Racing 6 0:38:38.2 0:06:26.4 1 DAY
15 117  Chris Dufour 35  Pleasanton, CA  Cushman 6 0:38:44.9 0:06:27.5 302616
16 163  Joseph Lange 32  Acampo, CA  LangeTwins Active Team 6 0:38:52.4 0:06:28.7 1 DAY
17 253  Joshua Boyden 33  Folsom, CA   6 0:39:00.7 0:06:30.1 1 DAY
18 267  Nolen Brown 26  Berkeley, CA   6 0:39:25.4 0:06:34.2 1 DAY
19 367  Mark Hoover 42     6 0:39:28.7 0:06:34.8 1 DAY
20 326  Courtney Austin 30  Danville, CA   5 0:33:53.4 0:06:46.7 359213
21 284  John Morris 37  Turlock, CA  Cycle Masters of Turlock 5 0:34:09.9 0:06:50.0 1 DAY
22 276  Sterling Frank 34  Sacramento, CA  GHETO 5 0:34:56.9 0:06:59.4 1 DAY
23 222  Allen Chitty 32  Sacramento, CA   5 0:39:41.4 0:07:56.3 1 DAY
24 358  Mark Forsyth 33  West Sac, CA  Revolution Screening 5 0:39:48.4 0:07:57.7 1 DAY
25 379  Dave Nguyen 25  Roseville, CA   4 0:39:15.7 0:09:48.9 1 DAY
26 357  Mike Forsyth 35  West Sacramento, CA  Revolution Screening 4 0:41:06.4 0:10:16.6 1 DAY
27 360  Daniel Cortopassi 31  Rio Linda, CA   2 0:08:52.7 0:04:26.3 423128
28 116  Skye Comstock 33  Oakland, CA  Team Moustache 2 0:10:20.7 0:05:10.3 1 DAY
Men C35+ Top
Pos Bib Name Age City Sponsor Laps Time Average License
1 120  Justin Hintz 39  Sacramento, CA  River City Velo 6 0:32:47.0 0:05:27.8 368842
2 157  Rozel Tupaz 39  Bay Point, CA  Cushman & Wakefield Racing 6 0:34:28.6 0:05:44.8 269119
3 227  Maxence Nachury 40  San Francisco, CA  SF2G 6 0:35:28.4 0:05:54.7 184729
4 175  Matthew Lewsadder 37  Monte Sereno, CA  Los Gatos Bicycle Racing Club 6 0:35:45.3 0:05:57.5 400759
5 166  David Christy 40  Clayton, CA  CA Technologies 6 0:35:56.5 0:05:59.4 356847
6 149  Ron Patch 44  Reno, NV  glacier Cycling 6 0:36:55.7 0:06:09.3 416750
7 316  Jason Murphy 43  Sacramento, CA  Team City Sacramento 6 0:37:46.7 0:06:17.8 118424
8 186  Bryan Miller 41  West Sacramento, CA  TBBCX/gheto 6 0:37:55.7 0:06:19.3 420207
9 218  Benjamin Tomkins 44  Orinda, CA  Cushman & Wakefield 6 0:38:34.4 0:06:25.7 413930
10 190  Greg Price 40  West Sacramento, CA  Rio Strada Racing 6 0:39:21.5 0:06:33.6 364779
11 319  Mark Niskanen 37  Modesto, CA   6 0:40:25.7 0:06:44.3 1 DAY
12 295  Patrick Dyer 41  Davis, CA  Mike's Velo City 5 0:32:55.2 0:06:35.0 10319
13 301  Bryan Beardsley 42  Citrus Heights, CA  LeadOut Racing 5 0:33:35.7 0:06:43.1 384187
14 355  Derek Lindahl 36  Elk Grove, CA   5 0:33:55.7 0:06:47.1 1 DAY
15 220  Troy Prather 44  Davis, CA  Team Mason Thomas 5 0:36:17.7 0:07:15.5 304886
16 330  Tom Leblanc 40  Sacramento, CA   4 0:40:02.7 0:10:00.7 1 DAY
17 165  Rudy Alfonso 41  Elk Grove, CA  Kinetic Cycles 3 0:28:34.4 0:09:31.5 1 DAY
dns 101  Matthew Hargrove 44  West Sacramento, CA  TBBCX 0 - - 371468
dns 154  Coby Rowe 40  Reno, NV  Glacier Cycling 0 - - 328268
dns 237  Kenny Kuo 36  Sacramento, CA   0 - - 1 DAY
Men C45+ Top
Pos Bib Name Age City Sponsor Laps Time Average License
1 287  Ron Fallon 46  Folsom, CA  Victory velo racing 6 0:33:40.8 0:05:36.8 333716
2 159  Gregory Spanier 46  Alamo, CA  CA Technologies Racing 6 0:33:50.3 0:05:38.4 332082
3 306  Rick Graves 48  San Rafael, CA  CA Technologies 6 0:34:47.0 0:05:47.8 100365
4 255  Jeff Brooks 52  Rocklin, CA  Victory Velo Racing 6 0:35:20.6 0:05:53.4 395183
5 209  Jeff Farley 46  Rancho Cordova, CA  Folsom Bike/VW/Raleys 6 0:35:29.0 0:05:54.8 339050
6 320  Doug Vrieling 51  Modesto, CA  Fun Sport Bikes Cycling Team 6 0:35:29.8 0:05:55.0 185026
7 156  Chris Walker 48  Sacramento, CA  Nossaman 6 0:35:32.0 0:05:55.3 1 DAY
8 130  Bryan Fox 46  San Francisco, CA   6 0:35:32.0 0:05:55.3 1 DAY
9 285  Greg Trumpler 46  San Mateo, CA  Pen Velo Racing 6 0:35:39.0 0:05:56.5 423005
10 143  Matt Gregory 50  Riverbank, CA   6 0:35:49.0 0:05:58.2 1 DAY
11 106  Mark Koenig 54  San Jose, CA  Pen Velo Racing 6 0:36:22.3 0:06:03.7 141726
12 340  Kj Forbes 54  Danville, CA   6 0:36:26.3 0:06:04.4 1 DAY
13 126  Jim English 54  San Ramon, CA  SuperPro Racing 6 0:36:34.0 0:06:05.7 96452
14 203  Steve Rex 53  Sacramento, CA  Rex Cycles 6 0:36:43.0 0:06:07.2 1 DAY
15 233  David Almquist 50  Roseville, CA  Team City Sacramento 6 0:36:46.0 0:06:07.7 365531
16 277  Tim Smith 62  Placerville, CA  Victory Velo Racing 6 0:36:53.0 0:06:08.8 381023
17 261  Larry Walton 56  Oakley, CA  Lamorinda Cycling Club/Cushman & Wakefield Racing 6 0:37:20.5 0:06:13.4 393720
18 313  Matt Marks 47  Granite Bay, CA  Victory Velo Racing 6 0:37:26.0 0:06:14.3 395910
19 238  Gary Biehl 52  Sacramento, CA   6 0:37:28.6 0:06:14.8 86778
20 251  Kwang Kim 50  Fair Oaks, CA  Team City 6 0:37:33.0 0:06:15.5 236974
21 107  Stephen Mason 48  Folsom, CA  SJBC 6 0:37:39.0 0:06:16.5 257941
22 244  John Bonnett 52  Roseville, CA   6 0:37:46.8 0:06:17.8 1 DAY
23 337  Curtiss Johnson 50  Newcastle, CA  Victory Velo Racing 6 0:37:49.0 0:06:18.2 419925
24 304  Troy Underwood 50  Rancho Cordova, CA  Sacramento Golden Wheelmen 6 0:37:58.7 0:06:19.8 238691
25 205  Chris Dawson 47  Sacramento, CA  Rio Strada Racing 6 0:38:09.0 0:06:21.5 224241
26 188  Jeff Namba 58  Sacramento, CA  TBBCX/GHETO 6 0:38:23.0 0:06:23.8 1 DAY
27 375  Rich Balestreri 61  Sacramento, CA   6 0:39:11.0 0:06:31.8 443017
28 232  Rob Wassmer 53  Sacramento, CA  Kinetic Cycle 6 0:39:11.3 0:06:31.9 1 DAY
29 113  Steve Biggs 47  Clayton, CA  Cushman & Wakefield Racing 6 0:39:11.7 0:06:32.0 336130
30 365  John Gerling 54  Modesto, CA  Fun Sport Bikes Cycling Team 6 0:39:16.0 0:06:32.7 218917
31 361  John Galvin 51  Concord, CA  Cushman Wakefiels 6 0:39:19.0 0:06:33.2 333042
32 270  Jim Mcdonald 51  Sacramento, CA  Rio Strada Racing 5 0:32:25.0 0:06:29.0 96452
33 344  Tom Strause 54  Granite Bay, CA  Kinetic Cycles 5 0:33:08.5 0:06:37.7 321390
34 235  Roger Mackensen 49  Sacramento, CA   5 0:33:12.0 0:06:38.4 1 DAY
35 325  Howard Mintz 47  Sacramento, CA   5 0:33:41.0 0:06:44.2 375287
36 243  Robin Rolles 46  Sacramento, CA  Team Bike Dog 5 0:35:28.8 0:07:05.8 1 DAY
37 336  Roy Hui 49  Sacramento, CA  Team City Sacramento 5 0:35:34.0 0:07:06.8 418893
38 254  Gerald Jeffs 55  Dublin, CA  Crushman & Wakefield Racing 5 0:35:51.5 0:07:10.3 235909
39 241  Scott Overton 47  Carmichael, CA   5 0:38:18.5 0:07:39.7 1 DAY
40 349  Tripp Goldsberry 45  Sacramento, CA  Sacramento Golden Wheelmen 3 0:18:41.2 0:06:13.7 132927
41 368  Joe Sanders 55  Paradise, CA   3 0:19:53.6 0:06:37.8 1 DAY
42 162  Todd Roach 48  Discovery Bay, CA  Cushman & Wakefield 1 0:02:37.9 - 30039
43 348  Samuel Brinker 55  Livermore, CA   1 0:03:04.8 - 300215
dns 213  Chris Becker 45  Orinda, CA  CA Technologies 0 - - 287692
dns 247  Jim Macdonald 38  Sacramento, CA  BEER Components 0 - - 1 DAY
dns 283  Damien Anderson 55  Carmichael, CA  Victory Velo Racing 0 - - 419364
Single Speed Men Top
Pos Bib Name Age City Sponsor Laps Time Average License
1 167  Ryan Rinn 32  San Francisco, CA  vive la tarte cx 9 0:49:35.2 0:05:30.6 388951
2 178  Ron Shevock 39  Folsom, CA  Folsom Bike / VW / Raleys 9 0:50:45.5 0:05:38.4 294396
3 327  Jay Sturges 40  Sacramento, CA  Sacramento Golden Wheelmen 9 0:50:59.0 0:05:39.9 43151
4 299  Tim Cannard 45  Los Gatos, CA  Buy-Cell.com/Ibis 9 0:51:11.0 0:05:41.2 6002
5 200  Dan Sovereign 53  Sacramento, CA  The Bicycle Business 9 0:51:13.2 0:05:41.5 106455
6 104  William Youngman 45  Rocklin, CA  REVS 9 0:52:30.0 0:05:50.0 203737
7 329  Melvictor Tiongson 26  Daly City, CA  #18millionspeed 9 0:52:51.5 0:05:52.4 413782
8 294  Scott Symon 40  Portola Valley, CA  Team Roaring Mouse 9 0:52:57.0 0:05:53.0 261907
9 288  Dylan Mcreynolds 42  Berkeley, CA  Cycles FANATI 9 0:52:57.0 0:05:53.0 23832
10 381  Evan Sarna 34  Oakland, CA  Missan Link/3rd Rail 9 0:53:09.2 0:05:54.4 1 DAY
11 182  Chad Hester 42  El Dorado Hills, CA  Revolutions CX 9 0:53:29.0 0:05:56.6 1 DAY
12 382  Rich Maile 50  Sacramento, CA  GFR 9 0:53:40.8 0:05:57.9 153697
13 366  Spencer Fields 19  Placerville, CA   9 0:54:26.0 0:06:02.9 403410
14 179  Emery Wedel 28  Santa Cruz, CA  Caletti Cycles 9 0:54:33.5 0:06:03.7 443105
15 351  Thomas Hoeffel 51  Oakland, CA   9 0:54:49.7 0:06:05.5 16403
16 138  Clint Holtzen 32  Sacramento, CA  Bike Dog 9 0:55:15.0 0:06:08.3 1 DAY
17 214  Blair Peterson 53  Mill Valley, CA  Bear Trust Racing 9 0:55:17.0 0:06:08.5 118422
18 161  Marcus Catano 42  Mt View, CA   9 0:55:31.5 0:06:10.2 443081
19 246  Morgan Allen 32  Oakland, CA  BRKLND 9 0:55:38.8 0:06:11.0 318118
20 334  Wilson Deng 24  San Francisco, CA  #18MillionSpeed 9 0:55:40.0 0:06:11.1 414574
21 292  Paul Falvey 57  Grass Valley, CA  Sho/Air Sert 9 0:55:43.0 0:06:11.4 11212
22 212  Vee Bhopla 40  Folsom, CA  REVS 9 0:55:55.0 0:06:12.8 258303
23 297  Riley Marmesh 29  San Francisco, CA   9 0:56:19.7 0:07:02.5 1 DAY
24 141  Zack Cunningham 28  Sacramento, CA   9 0:56:24.7 0:06:16.1 443093
25 103  Todd Marshall 51  Sacto, CA  Davis Bike Club Racing Team 8 0:49:56.0 0:06:14.5 43936
26 118  Gregory Ries 36  Carmicahel, CA  Squadra Abruzzo 8 0:50:01.5 0:06:15.2 1 DAY
27 142  Tye Austin 35  Sacramento, CA  Mediocre Racing 8 0:50:09.7 0:06:16.2 1 DAY
28 239  Mitch Reichardt 36  Sacramento, CA  GHETO 8 0:50:14.0 0:06:16.7 1 DAY
29 136  Trace Mcmahon 48  Cameron Park, CA  River City Velo 8 0:50:43.0 0:06:20.4 23735
30 260  Jamaica Lambie 39  Woodland, CA  Team EcxiteBike 8 0:51:02.5 0:06:22.8 301435
31 144  Jon Bekefy 38  Oakland, CA   8 0:51:13.0 0:06:24.1 3198
32 359  Paul Droubay 30  Carmichael, CA  The Bicycle Business 8 0:51:35.0 0:06:26.9 1 DAY
33 318  Tim Smith 37  Sacramento, CA  Team Bike Dog 8 0:52:19.0 0:06:32.4 1 DAY
34 122  Christopher Learned 42  Sacramento, CA  River City Velo 8 0:52:37.7 0:06:34.7 1 DAY
35 174  Jonathan Clay 43  Davis, CA  VeloCity 8 0:52:56.0 0:06:37.0 1 DAY
36 140  Stuart Bratton 48  Folsom, CA  LeadOut Racing 8 0:53:00.2 0:06:37.5 286850
37 265  Chris Dougherty 41  Sacto, CA  Bicycle Business 8 0:53:39.0 0:06:42.4 1 DAY
38 101  Matthew Hargrove 44  West Sacramento, CA  TBBCX 8 0:57:02.2 0:07:07.8 371468
39 386  Chris Dawson 47  Sacramento, CA  Rio Strada Racing 8 0:57:06.0 0:07:08.2 224241
40 207  Chris Shultz 41  Sacramento, CA   7 0:50:32.0 0:07:13.1 1 DAY
41 371  Rick Mcelman 52  Carmichael, CA  Dirt Velo 7 0:51:22.0 0:07:20.3 1 DAY
42 257  True Lambie 34  Stockton, CA   6 0:50:38.0 0:08:26.3 1 DAY
43 383  Jim Mcdonald 55     5 0:28:52.7 0:05:46.5 -
44 171  Chris Rippey 33  East Palo Alto, CA  Team roaring mouse 2 0:08:24.4 0:04:12.2 358809
45 332  Richard Castillo 26  Daly City, CA  #18millionspeed 2 0:09:06.1 0:04:33.1 414271
46 274  Doug Ryan 41  Stockton, CA  michael david winery 2 0:09:40.4 0:04:50.2 271471
47 218  Benjamin Tomkins 44  Orinda, CA  Cushman & Wakefield 2 0:10:11.6 0:05:05.8 413930
48 169  Will Waggoner 45  Sacramento, CA  Davis Bike Club Race Team 1 0:57:56.5 - 196269
dnf 149  Ron Patch 44  Reno, NV  glacier Cycling 0 - - 416750
dns 285  Greg Trumpler 46  San Mateo, CA  Pen Velo Racing 0 - - 423005
Single Speed Women Top
Pos Bib Name Age City Sponsor Laps Time Average License
1 13  Stace Cooper 44  Lincoln, CA  GHETOCX 8 0:53:29.5 0:06:41.2 7731
2 279  Caitlin Trahan 31  Oakland, CA  TEAM JORTZ 8 0:55:41.0 0:06:57.6 199333
3 135  Kristen Hill 42  Woodland, CA  Kinetic Cycles 7 0:55:20.0 0:07:54.3 306378
4 278  Ashley Fruhwirth 25  Sacramento, CA  Team Mad Cat 6 0:55:44.7 0:09:17.5 1 DAY
dns 312  Erin Stone 31  San Francisco, CA  Vive la Tarte 0 - - 1 DAY
Women B Top
Pos Bib Name Age City Sponsor Laps Time Average License
1 308  Jessica Culnane 31  Berkeley, CA  vive la tarte 6 0:36:06.8 0:06:01.1 360053
2 335  Monica Mazzocco 48  Danville, CA   6 0:37:06.8 0:06:11.1 1 DAY
3 291  Johanna Fogolin 35  San Jose, CA  SJBC 6 0:37:17.8 0:06:13.0 383842
4 16  Chelsea Weidinger 30  San Francisco, CA  MASH SF 6 0:37:32.8 0:06:15.5 421168
5 15  Katie Styer 29  San Francisco, CA  TEAM JORTZ 6 0:38:07.6 0:06:21.3 309920
6 345  Jennifer Teerlink 35  Sacramento, CA  Mountain Miss Fits 6 0:38:26.8 0:06:24.5 364362
7 280  Sam Bell 31  Oakland, CA  TEAM JORTZ 6 0:38:44.6 0:06:27.4 365771
8 354  Anna Poehlmann 29  Sacramento, CA   6 0:38:53.6 0:06:28.9 1 DAY
9 312  Erin Stone 31  San Francisco, CA  Vive la Tarte 6 0:39:13.8 0:06:32.3 1 DAY
10 217  Rebecca Reichardt 36  Sacramento, CA  Sac Tri Club 6 0:40:43.4 0:06:47.2 1 DAY
11 376  Ariel Raymon 30  Oakland, CA  Rock Lobster/BBB 6 0:40:50.8 0:06:48.5 389252
12 282  Mandi Seavers 26  Sacramento, CA  Kinetic Cycles 6 0:41:28.8 0:06:54.8 1 DAY
13 378  Adrienne Belliveau 28  San Francisco, CA  Team TIBCO II 5 0:37:26.8 0:07:29.4 303420
dns 272  Rebecca Wolski 26  Berkeley, CA  Team Roaring Mouse 0 - - 256878
Women B35+ Top
Pos Bib Name Age City Sponsor Laps Time Average License
1 377  Sarah Maile 35  Sacramento, CA  Ventana Mountain Bikes 6 0:36:08.6 0:06:01.4 -
2 380  Kim Vandersyde 40  REno, NV   6 0:37:11.8 0:06:12.0 103696
3 112  Desiree Haight 41  Sacramento, CA  Team Bike Dog 6 0:40:47.1 0:06:47.8 1 DAY
4 364  Tammy Wilson 35     6 0:41:59.8 0:06:60.0 -
Women B45+ Top
Pos Bib Name Age City Sponsor Laps Time Average License
1 224  Linda Elgart 58  Sacramento, CA  LuxVue Sunpower Racing 6 0:39:29.8 0:06:35.0 45299
2 195  Madeline Finch 55  Sacramento, CA  Rio Strada Racing 6 0:40:35.8 0:06:46.0 127715
3 338  Renee Shelton 46  Mill Valley, CA   6 0:41:46.8 0:06:57.8 101965
Women C Top
Pos Bib Name Age City Sponsor Laps Time Average License
1 315  Hannah Stonefield 29  San Francisco, CA  VIVE LA TARTE 5 0:30:52.1 0:06:10.4 3320600
2 333  Sarah Pittiglio 37  Davis, CA   5 0:31:44.6 0:06:20.9 195004
3 187  Andrea Madison 52  Vacaville, CA  Vacaville Velo Wrench 5 0:33:08.8 0:06:37.8 403267
4 17  Kelly Miller 37  West Sacramento, CA  Rio Strada Racing 5 0:33:42.6 0:06:44.5 378684
5 259  Yuko Gee 45  Sacramento, CA   4 0:28:07.8 0:07:02.0 305096
6 392  Brigitte Week 49  Vacaville, CA  Velo Wrench of V.V. 4 0:29:12.8 0:07:18.2 916114
7 369  Lori Patch 43  Reno, NV  Glacier Glove 4 0:29:48.8 0:07:27.2 -
8 391  Juliette Pinsky 27  Davis, CA   4 0:31:12.6 0:07:48.1 -
9 303  Darcy Hargrove 43  West Sacramento, CA  TBBCX/gheto 4 0:32:46.8 0:08:11.7 1 DAY
10 356  Constance Williams 57  Fairfield, CA   3 0:36:05.8 0:12:01.9 1 DAY
dns 152  Angie Blaikie 30  Sacramento, CA  Team Bike Dog 0 - - 1 DAY